Time;durP1;ratioP1;P1;durP2;ratioP2;P2;SDS_P1;SDS_P2;PMS_P1;PMS_P2;Temp;Humidity;BMP_temperature;BMP_pressure;BME280_temperature;BME280_humidity;BME280_pressure;Samples;Min_cycle;Max_cycle;Signal;HPM_P1;HPM_P2
2021/10/15 00:01:25;;;;;;;3.20;2.30;;;13.60;99.90;;;;;;5054325;28;21226;-67
2021/10/15 00:03:52;;;;;;;2.90;2.07;;;13.60;99.90;;;;;;5053476;28;20459;-68
2021/10/15 00:06:19;;;;;;;4.63;2.50;;;13.60;99.90;;;;;;5056855;28;21057;-68
2021/10/15 00:08:46;;;;;;;3.03;2.03;;;13.60;99.90;;;;;;5049920;28;20533;-69
2021/10/15 00:11:13;;;;;;;3.63;3.33;;;13.70;99.90;;;;;;5045898;28;20957;-67
2021/10/15 00:13:42;;;;;;;3.07;2.30;;;13.70;99.90;;;;;;5051055;28;20586;-69
2021/10/15 00:16:09;;;;;;;2.83;2.23;;;13.60;99.90;;;;;;5036619;28;20621;-68
2021/10/15 00:18:36;;;;;;;3.87;2.33;;;13.70;99.90;;;;;;5054033;28;20462;-69
2021/10/15 00:21:03;;;;;;;2.60;1.90;;;13.70;99.90;;;;;;5055206;28;21020;-68
2021/10/15 00:23:30;;;;;;;2.87;2.07;;;13.60;99.90;;;;;;5045876;28;20463;-68
2021/10/15 00:25:57;;;;;;;2.10;1.90;;;13.60;99.90;;;;;;5046486;28;20814;-68
2021/10/15 00:28:24;;;;;;;3.40;1.80;;;13.60;99.90;;;;;;5058089;28;20880;-68
2021/10/15 00:30:53;;;;;;;8.90;3.10;;;13.60;99.90;;;;;;5056354;28;20494;-68
2021/10/15 00:33:20;;;;;;;5.17;2.30;;;13.60;99.90;;;;;;5059034;28;20458;-68
2021/10/15 00:35:47;;;;;;;6.80;3.50;;;13.60;99.90;;;;;;5051989;28;20615;-69
2021/10/15 00:38:14;;;;;;;8.80;2.50;;;13.50;99.90;;;;;;5050084;28;20535;-68
2021/10/15 00:40:41;;;;;;;4.97;2.20;;;13.50;99.90;;;;;;5052292;28;20822;-69
2021/10/15 00:43:08;;;;;;;5.23;2.67;;;13.50;99.90;;;;;;5057602;28;20550;-68
2021/10/15 00:45:35;;;;;;;3.20;2.20;;;13.40;99.90;;;;;;5065653;28;20509;-69
2021/10/15 00:48:04;;;;;;;3.30;2.33;;;13.40;99.90;;;;;;5058352;28;20565;-68
2021/10/15 00:50:31;;;;;;;6.90;2.03;;;13.40;99.90;;;;;;5052853;28;20517;-69
2021/10/15 00:52:58;;;;;;;2.63;2.17;;;13.40;99.90;;;;;;5060590;28;21023;-69
2021/10/15 00:55:25;;;;;;;2.47;2.27;;;13.40;99.90;;;;;;5053676;28;20453;-67
2021/10/15 00:57:52;;;;;;;4.27;1.83;;;13.30;99.90;;;;;;5059400;28;20487;-69
2021/10/15 01:00:19;;;;;;;4.60;2.60;;;13.30;99.90;;;;;;5051840;28;20828;-68
2021/10/15 01:02:46;;;;;;;3.00;2.30;;;13.20;99.90;;;;;;5053038;28;20479;-68
2021/10/15 01:05:15;;;;;;;6.27;2.53;;;13.20;99.90;;;;;;5051147;28;20544;-69
2021/10/15 01:07:42;;;;;;;3.17;2.87;;;13.20;99.90;;;;;;5055012;28;20548;-68
2021/10/15 01:10:09;;;;;;;2.40;1.80;;;13.10;99.90;;;;;;5051512;28;20471;-68
2021/10/15 01:12:38;;;;;;;5.30;2.60;;;13.20;99.90;;;;;;5054908;28;20466;-69
2021/10/15 01:15:05;;;;;;;7.37;2.27;;;13.10;99.90;;;;;;5053154;28;20516;-67
2021/10/15 01:17:32;;;;;;;5.93;2.30;;;13.10;99.90;;;;;;5048727;28;20475;-68
2021/10/15 01:20:01;;;;;;;3.83;2.17;;;13.00;99.90;;;;;;5054552;28;21121;-68
2021/10/15 01:22:29;;;;;;;2.87;1.80;;;13.00;99.90;;;;;;5054104;28;20543;-67
2021/10/15 01:24:58;;;;;;;2.80;2.17;;;12.90;99.90;;;;;;5049276;28;20479;-67
2021/10/15 01:27:26;;;;;;;3.47;2.43;;;12.90;99.90;;;;;;5051955;28;20557;-67
2021/10/15 01:29:53;;;;;;;5.83;4.60;;;12.90;99.90;;;;;;5057785;28;20550;-67
2021/10/15 01:32:21;;;;;;;2.07;1.43;;;12.80;99.90;;;;;;5050356;28;20462;-67
2021/10/15 01:34:48;;;;;;;2.83;2.00;;;12.80;99.90;;;;;;5049859;28;20455;-67
2021/10/15 01:37:16;;;;;;;3.70;1.90;;;12.80;99.90;;;;;;5045669;28;20482;-67
2021/10/15 01:39:43;;;;;;;2.30;1.40;;;12.80;99.90;;;;;;5049083;28;20483;-66
2021/10/15 01:42:53;;;;;;;3.23;2.53;;;12.90;99.90;;;;;;5051065;28;20549;-68
2021/10/15 01:44:58;;;;;;;3.93;2.67;;;12.90;99.90;;;;;;5052500;28;20433;-67
2021/10/15 01:47:25;;;;;;;13.33;2.07;;;12.90;99.90;;;;;;5053717;28;21043;-67
2021/10/15 01:49:53;;;;;;;5.83;2.20;;;13.00;99.90;;;;;;5054669;28;20459;-67
2021/10/15 01:52:21;;;;;;;3.67;1.87;;;12.90;99.90;;;;;;5049905;28;20895;-67
2021/10/15 01:54:48;;;;;;;3.23;2.93;;;12.90;99.90;;;;;;5049991;28;20988;-67
2021/10/15 01:57:15;;;;;;;2.40;1.70;;;12.80;99.90;;;;;;5053388;28;20471;-68
2021/10/15 01:59:42;;;;;;;4.80;2.03;;;12.90;99.90;;;;;;5056921;28;20459;-67
2021/10/15 02:02:09;;;;;;;10.50;3.70;;;12.90;99.90;;;;;;5052127;28;20482;-67
2021/10/15 02:04:36;;;;;;;3.07;2.33;;;12.90;99.90;;;;;;5055677;28;20538;-68
2021/10/15 02:07:03;;;;;;;3.00;2.67;;;12.90;99.90;;;;;;5042556;28;20515;-67
2021/10/15 02:09:31;;;;;;;3.03;1.77;;;12.90;99.90;;;;;;5049668;28;20536;-68
2021/10/15 02:11:59;;;;;;;10.23;2.50;;;12.90;99.90;;;;;;5050552;28;20582;-68
2021/10/15 02:14:26;;;;;;;9.43;2.80;;;12.90;99.90;;;;;;5049069;28;20455;-67
2021/10/15 02:16:53;;;;;;;4.33;2.00;;;12.90;99.90;;;;;;5051874;28;20461;-66
2021/10/15 02:19:20;;;;;;;14.87;3.43;;;12.80;99.90;;;;;;5052298;28;21427;-67
2021/10/15 02:21:47;;;;;;;4.30;2.40;;;12.80;99.90;;;;;;5047900;28;20542;-66
2021/10/15 02:24:14;;;;;;;3.00;1.93;;;12.70;99.90;;;;;;5051341;28;20489;-67
2021/10/15 02:26:42;;;;;;;3.93;2.07;;;12.70;99.90;;;;;;5045536;28;20600;-66
2021/10/15 02:29:09;;;;;;;2.77;2.40;;;12.70;99.90;;;;;;5043713;28;20475;-68
2021/10/15 02:31:36;;;;;;;3.33;2.43;;;12.60;99.90;;;;;;5048307;28;20538;-67
2021/10/15 02:34:03;;;;;;;4.37;2.20;;;12.60;99.90;;;;;;5051057;28;20506;-67
2021/10/15 02:36:30;;;;;;;4.80;3.20;;;12.60;99.90;;;;;;5048029;28;20488;-68
2021/10/15 02:38:57;;;;;;;3.10;2.27;;;12.60;99.90;;;;;;5040966;28;20594;-67
2021/10/15 02:41:24;;;;;;;3.17;2.27;;;12.60;99.90;;;;;;5044568;28;23925;-66
2021/10/15 02:43:53;;;;;;;4.03;2.47;;;12.60;99.90;;;;;;5047597;28;20959;-67
2021/10/15 02:46:20;;;;;;;1.60;1.50;;;12.40;99.90;;;;;;5050833;28;20920;-67
2021/10/15 02:48:47;;;;;;;9.50;2.80;;;12.40;99.90;;;;;;5045686;28;20893;-67
2021/10/15 02:51:15;;;;;;;5.60;2.37;;;12.40;99.90;;;;;;5044318;28;20508;-67
2021/10/15 02:53:41;;;;;;;3.70;2.60;;;12.50;99.90;;;;;;5052492;28;21045;-68
2021/10/15 02:56:08;;;;;;;2.70;1.73;;;12.50;99.90;;;;;;5045160;28;20474;-68
2021/10/15 02:58:35;;;;;;;7.40;2.93;;;12.50;99.90;;;;;;5047174;28;20467;-68
2021/10/15 03:01:04;;;;;;;2.17;1.90;;;12.50;99.90;;;;;;5044210;28;20542;-66
2021/10/15 03:03:31;;;;;;;3.57;3.03;;;12.50;99.90;;;;;;5048687;28;20545;-68
2021/10/15 03:05:58;;;;;;;7.70;3.57;;;12.50;99.90;;;;;;5048726;28;20630;-67
2021/10/15 03:08:25;;;;;;;4.53;3.47;;;12.40;99.90;;;;;;5049152;28;20883;-67
2021/10/15 03:10:52;;;;;;;3.50;2.27;;;12.40;99.90;;;;;;5042879;28;21425;-66
2021/10/15 03:13:19;;;;;;;2.93;1.90;;;12.40;99.90;;;;;;5040500;28;20541;-67
2021/10/15 03:15:46;;;;;;;3.73;2.50;;;12.40;99.90;;;;;;5048012;28;20570;-67
2021/10/15 03:18:15;;;;;;;3.53;2.70;;;12.40;99.90;;;;;;5050678;28;21066;-67
2021/10/15 03:20:42;;;;;;;4.83;2.40;;;12.50;99.90;;;;;;5041849;28;20490;-66
2021/10/15 03:23:10;;;;;;;4.80;2.50;;;12.40;99.90;;;;;;5050411;28;20526;-66
2021/10/15 03:25:37;;;;;;;4.50;3.37;;;12.40;99.90;;;;;;5040780;28;21178;-68
2021/10/15 03:28:04;;;;;;;2.77;2.57;;;12.40;99.90;;;;;;5041715;28;21144;-67
2021/10/15 03:30:31;;;;;;;3.23;2.40;;;12.30;99.90;;;;;;5053081;28;20460;-68
2021/10/15 03:32:59;;;;;;;2.63;2.23;;;12.40;99.90;;;;;;5051063;28;20539;-67
2021/10/15 03:35:27;;;;;;;3.37;2.60;;;12.40;99.90;;;;;;5052521;28;20490;-66
2021/10/15 03:37:54;;;;;;;4.83;2.40;;;12.30;99.90;;;;;;5042047;28;20545;-67
2021/10/15 03:40:21;;;;;;;7.20;2.50;;;12.30;99.90;;;;;;5041587;28;20436;-67
2021/10/15 03:42:48;;;;;;;4.40;2.47;;;12.30;99.90;;;;;;5042598;28;20463;-67
2021/10/15 03:45:15;;;;;;;6.40;3.00;;;12.30;99.90;;;;;;5042046;28;20493;-65
2021/10/15 03:47:42;;;;;;;4.20;2.80;;;12.30;99.90;;;;;;5050886;28;20888;-66
2021/10/15 03:50:10;;;;;;;3.67;3.10;;;12.40;99.90;;;;;;5048874;28;20462;-67
2021/10/15 03:52:38;;;;;;;3.60;2.87;;;12.40;99.90;;;;;;5041063;28;20539;-68
2021/10/15 03:55:08;;;;;;;5.57;2.97;;;12.40;99.90;;;;;;5051831;28;20602;-67
2021/10/15 03:57:36;;;;;;;5.43;2.70;;;12.40;99.90;;;;;;5042314;28;20471;-68
2021/10/15 04:00:03;;;;;;;2.70;1.90;;;12.50;99.90;;;;;;5044897;28;20545;-67
2021/10/15 04:02:30;;;;;;;6.67;2.90;;;12.40;99.90;;;;;;5049910;28;20471;-67
2021/10/15 04:04:57;;;;;;;3.77;2.03;;;12.40;99.90;;;;;;5046108;28;20507;-67
2021/10/15 04:07:24;;;;;;;7.30;3.37;;;12.40;99.90;;;;;;5049379;28;20565;-68
2021/10/15 04:09:52;;;;;;;3.53;2.20;;;12.40;99.90;;;;;;5051813;28;20451;-68
2021/10/15 04:12:19;;;;;;;3.00;2.60;;;12.40;99.90;;;;;;5049577;28;20512;-66
2021/10/15 04:14:46;;;;;;;4.33;2.60;;;12.30;99.90;;;;;;5049450;28;20590;-67
2021/10/15 04:17:13;;;;;;;13.80;4.90;;;12.40;99.90;;;;;;5057389;28;20585;-68
2021/10/15 04:19:40;;;;;;;6.20;2.73;;;12.40;99.90;;;;;;5054526;28;20553;-68
2021/10/15 04:22:09;;;;;;;6.73;4.10;;;12.40;99.90;;;;;;5050395;28;20438;-68
2021/10/15 04:24:36;;;;;;;3.13;2.50;;;12.50;99.90;;;;;;5054278;28;20482;-67
2021/10/15 04:27:05;;;;;;;3.40;2.57;;;12.40;99.90;;;;;;5057533;28;21130;-68
2021/10/15 04:29:32;;;;;;;8.57;3.50;;;12.40;99.90;;;;;;5058001;28;20458;-67
2021/10/15 04:31:59;;;;;;;14.23;4.10;;;12.50;99.90;;;;;;5051770;28;20488;-67
2021/10/15 04:34:27;;;;;;;3.40;2.70;;;12.50;99.90;;;;;;5059181;28;20470;-67
2021/10/15 04:36:54;;;;;;;4.23;2.70;;;12.50;99.90;;;;;;5051852;28;21185;-69
2021/10/15 04:39:21;;;;;;;3.57;2.77;;;12.50;99.90;;;;;;5050899;28;20550;-69
2021/10/15 04:41:48;;;;;;;5.53;2.90;;;12.50;99.90;;;;;;5043277;28;21824;-69
2021/10/15 04:44:16;;;;;;;7.50;3.17;;;12.40;99.90;;;;;;5057375;28;20531;-69
2021/10/15 04:46:43;;;;;;;4.00;2.67;;;12.30;99.90;;;;;;5064126;28;20534;-68
2021/10/15 04:49:10;;;;;;;3.53;1.90;;;12.40;99.90;;;;;;5058751;28;20458;-66
2021/10/15 04:51:37;;;;;;;3.87;2.80;;;12.40;99.90;;;;;;5060330;28;20472;-67
2021/10/15 04:54:04;;;;;;;3.37;2.20;;;12.40;99.90;;;;;;5064257;28;20529;-69
2021/10/15 04:56:32;;;;;;;7.40;3.80;;;12.40;99.90;;;;;;5061854;28;20562;-67
2021/10/15 04:58:59;;;;;;;4.70;3.17;;;12.40;99.90;;;;;;5063034;28;20512;-67
2021/10/15 05:01:27;;;;;;;3.90;3.27;;;12.40;99.90;;;;;;5060062;28;20493;-68
2021/10/15 05:03:54;;;;;;;7.23;4.00;;;12.40;99.90;;;;;;5055846;28;20605;-68
2021/10/15 05:06:21;;;;;;;15.47;3.83;;;12.30;99.90;;;;;;5047512;28;20851;-68
2021/10/15 05:09:01;;;;;;;3.77;3.27;;;12.30;99.90;;;;;;5065126;28;20459;-67
2021/10/15 05:11:28;;;;;;;9.87;3.73;;;12.20;99.90;;;;;;5064402;28;20446;-67
2021/10/15 05:13:56;;;;;;;15.60;3.50;;;12.20;99.90;;;;;;5059997;28;20703;-68
2021/10/15 05:16:23;;;;;;;9.20;3.27;;;12.20;99.90;;;;;;5056061;28;20479;-67
2021/10/15 05:18:51;;;;;;;3.40;2.20;;;12.20;99.90;;;;;;5052285;28;20441;-69
2021/10/15 05:21:18;;;;;;;10.23;3.73;;;12.20;99.90;;;;;;5054240;28;20470;-68
2021/10/15 05:23:45;;;;;;;5.87;3.40;;;12.10;99.90;;;;;;5061595;28;20454;-68
2021/10/15 05:26:12;;;;;;;3.57;3.03;;;12.10;99.90;;;;;;5059327;28;20493;-67
2021/10/15 05:28:39;;;;;;;4.40;2.87;;;12.10;99.90;;;;;;5063525;28;20577;-67
2021/10/15 05:31:06;;;;;;;5.37;3.30;;;12.20;99.90;;;;;;5060760;28;20550;-68
2021/10/15 05:33:33;;;;;;;5.80;3.90;;;12.10;99.90;;;;;;5053571;28;20499;-68
2021/10/15 05:36:01;;;;;;;7.80;3.20;;;12.10;99.90;;;;;;5062673;28;20607;-68
2021/10/15 05:38:28;;;;;;;13.50;3.97;;;12.00;99.90;;;;;;5061582;28;20656;-68
2021/10/15 05:40:55;;;;;;;5.70;2.40;;;11.90;99.90;;;;;;5055854;28;20783;-68
2021/10/15 05:43:22;;;;;;;10.07;4.40;;;12.00;99.90;;;;;;5062456;28;20486;-68
2021/10/15 05:45:49;;;;;;;6.33;3.30;;;12.00;99.90;;;;;;5061819;28;20513;-69
2021/10/15 05:48:17;;;;;;;3.77;3.10;;;12.10;99.90;;;;;;5060103;28;20863;-69
2021/10/15 05:50:44;;;;;;;9.37;3.90;;;12.20;99.90;;;;;;5062501;28;20471;-68
2021/10/15 05:53:14;;;;;;;5.27;3.90;;;12.20;99.90;;;;;;5055864;28;20464;-71
2021/10/15 05:55:56;;;;;;;6.30;3.90;;;12.20;99.90;;;;;;5061210;28;20494;-70
2021/10/15 06:01:07;;;;;;;6.57;3.90;;;12.30;99.90;;;;;;5055746;28;20521;-68
2021/10/15 06:03:34;;;;;;;3.60;2.90;;;12.30;99.90;;;;;;5060376;28;20418;-68
2021/10/15 06:14:20;;;;;;;10.33;3.80;;;12.30;99.90;;;;;;5064692;28;20433;-68
2021/10/15 06:16:49;;;;;;;4.70;3.20;;;12.20;99.90;;;;;;5065844;28;20474;-68
2021/10/15 06:19:18;;;;;;;3.73;2.80;;;12.20;99.90;;;;;;5062211;28;20455;-68
2021/10/15 06:21:45;;;;;;;5.07;3.33;;;12.20;99.90;;;;;;5061160;28;20451;-68
2021/10/15 06:24:14;;;;;;;3.73;3.10;;;12.20;99.90;;;;;;5062636;28;20650;-69
2021/10/15 06:26:41;;;;;;;7.87;2.90;;;12.20;99.90;;;;;;5062085;28;20544;-68
2021/10/15 06:29:08;;;;;;;4.20;3.00;;;12.20;99.90;;;;;;5068868;28;20522;-69
2021/10/15 06:31:34;;;;;;;4.10;3.70;;;12.20;99.90;;;;;;5061775;28;20447;-68
2021/10/15 06:34:02;;;;;;;3.50;3.20;;;12.10;99.90;;;;;;5057739;28;21030;-68
2021/10/15 06:36:29;;;;;;;4.53;3.23;;;12.20;99.90;;;;;;5061696;28;20566;-68
2021/10/15 06:38:56;;;;;;;5.13;2.60;;;12.20;99.90;;;;;;5069074;28;20470;-68
2021/10/15 06:41:24;;;;;;;11.60;3.27;;;12.20;99.90;;;;;;5065756;28;20468;-68
2021/10/15 06:43:51;;;;;;;5.33;3.67;;;12.20;99.90;;;;;;5053532;28;20625;-68
2021/10/15 06:46:20;;;;;;;3.13;2.30;;;12.30;99.90;;;;;;5064788;28;20510;-68
2021/10/15 06:48:47;;;;;;;4.50;2.90;;;12.20;99.90;;;;;;5065850;28;20457;-68
2021/10/15 06:51:14;;;;;;;3.23;2.93;;;12.20;99.90;;;;;;5066855;28;20540;-67
2021/10/15 06:53:41;;;;;;;5.10;3.20;;;12.30;99.90;;;;;;5066188;28;20986;-67
2021/10/15 06:56:08;;;;;;;7.10;2.70;;;12.30;99.90;;;;;;5061857;28;20553;-67
2021/10/15 06:58:36;;;;;;;4.20;2.47;;;12.30;99.90;;;;;;5059026;28;20451;-67
2021/10/15 07:01:04;;;;;;;4.60;3.53;;;12.30;99.90;;;;;;5057239;28;20490;-68
2021/10/15 07:03:31;;;;;;;4.63;3.77;;;12.30;99.90;;;;;;5063331;28;20467;-69
2021/10/15 07:05:59;;;;;;;4.17;2.90;;;12.30;99.90;;;;;;5063909;28;20486;-67
2021/10/15 07:08:26;;;;;;;3.43;2.87;;;12.30;99.90;;;;;;5063950;28;20493;-68
2021/10/15 07:10:54;;;;;;;3.87;2.40;;;12.40;99.90;;;;;;5060602;28;20526;-67
2021/10/15 07:13:20;;;;;;;5.60;4.20;;;12.40;99.90;;;;;;5059368;28;20711;-67
2021/10/15 07:15:49;;;;;;;7.13;2.87;;;12.40;99.90;;;;;;5059088;28;20483;-68
2021/10/15 07:18:16;;;;;;;5.30;3.30;;;12.40;99.90;;;;;;5066720;28;20456;-68
2021/10/15 07:20:43;;;;;;;5.63;3.90;;;12.40;99.90;;;;;;5057147;28;20452;-67
2021/10/15 07:23:11;;;;;;;5.93;3.50;;;12.40;99.90;;;;;;5058502;28;20904;-67
2021/10/15 07:25:38;;;;;;;6.80;3.93;;;12.50;99.90;;;;;;5067050;28;20462;-67
2021/10/15 07:28:07;;;;;;;5.47;3.53;;;12.40;99.90;;;;;;5055018;28;20500;-67
2021/10/15 07:30:34;;;;;;;5.03;3.80;;;12.50;99.90;;;;;;5065463;28;20576;-68
2021/10/15 07:33:02;;;;;;;4.03;3.53;;;12.60;99.90;;;;;;5053297;28;20547;-67
2021/10/15 07:35:29;;;;;;;6.27;3.50;;;12.60;99.90;;;;;;5053645;28;20571;-68
2021/10/15 07:37:56;;;;;;;3.43;2.50;;;12.60;99.90;;;;;;5054925;28;20446;-67
2021/10/15 07:40:24;;;;;;;7.43;4.23;;;12.60;99.90;;;;;;5060105;28;20482;-67
2021/10/15 07:42:51;;;;;;;6.83;4.03;;;12.70;99.90;;;;;;5056006;28;20479;-67
2021/10/15 07:45:18;;;;;;;3.53;2.40;;;12.80;99.90;;;;;;5058981;28;20505;-67
2021/10/15 07:47:44;;;;;;;4.20;2.53;;;12.80;99.90;;;;;;5058306;28;20483;-68
2021/10/15 07:50:13;;;;;;;3.00;2.50;;;12.80;99.90;;;;;;5065391;28;20453;-68
2021/10/15 07:52:41;;;;;;;9.53;4.40;;;12.90;99.90;;;;;;5055819;28;20518;-67
2021/10/15 07:55:09;;;;;;;4.77;3.23;;;12.90;99.90;;;;;;5061666;28;20471;-67
2021/10/15 07:57:36;;;;;;;6.90;4.50;;;12.90;99.90;;;;;;5066215;28;20493;-68
2021/10/15 08:00:04;;;;;;;3.20;2.80;;;13.00;99.90;;;;;;5059531;28;20451;-68
2021/10/15 08:02:31;;;;;;;8.90;4.30;;;13.00;99.90;;;;;;5063537;28;20491;-69
2021/10/15 08:04:58;;;;;;;4.10;2.70;;;13.00;99.90;;;;;;5059104;28;20911;-68
2021/10/15 08:07:26;;;;;;;6.10;2.73;;;13.00;99.90;;;;;;5066366;28;20486;-68
2021/10/15 08:09:53;;;;;;;10.13;3.40;;;13.10;99.90;;;;;;5066089;28;20511;-69
2021/10/15 08:12:20;;;;;;;4.27;3.53;;;13.10;99.90;;;;;;5057926;28;20454;-68
2021/10/15 08:14:47;;;;;;;6.30;3.20;;;13.10;99.90;;;;;;5061348;28;20567;-68
2021/10/15 08:17:15;;;;;;;5.67;4.30;;;13.10;99.90;;;;;;5059175;28;20505;-68
2021/10/15 08:19:43;;;;;;;4.77;3.97;;;13.10;99.90;;;;;;5059914;28;20644;-68
2021/10/15 08:22:10;;;;;;;12.43;4.03;;;13.10;99.90;;;;;;5054622;28;20434;-68
2021/10/15 08:24:38;;;;;;;4.90;4.37;;;13.20;99.90;;;;;;5053763;28;20590;-68
2021/10/15 08:27:06;;;;;;;7.57;4.20;;;13.20;99.90;;;;;;5060481;28;20479;-68
2021/10/15 08:29:37;;;;;;;12.73;4.73;;;13.20;99.90;;;;;;5062089;28;20461;-68
2021/10/15 08:32:05;;;;;;;8.67;4.47;;;13.10;99.90;;;;;;5064207;28;20438;-68
2021/10/15 08:34:32;;;;;;;6.17;4.23;;;13.10;99.90;;;;;;5054786;28;20841;-69
2021/10/15 08:36:59;;;;;;;11.17;5.10;;;13.00;99.90;;;;;;5057936;28;20622;-68
2021/10/15 08:39:28;;;;;;;6.53;3.60;;;12.90;99.90;;;;;;5068982;28;20524;-69
2021/10/15 08:41:57;;;;;;;12.70;5.50;;;12.90;99.90;;;;;;5063996;28;20469;-68
2021/10/15 08:44:27;;;;;;;7.43;3.90;;;12.80;99.90;;;;;;5059567;28;20479;-68
2021/10/15 08:46:55;;;;;;;6.37;3.83;;;12.80;99.90;;;;;;5060469;28;20851;-68
2021/10/15 08:49:22;;;;;;;6.40;3.80;;;12.70;99.90;;;;;;5055849;28;20515;-68
2021/10/15 08:51:49;;;;;;;10.23;5.10;;;12.60;99.90;;;;;;5064983;28;20450;-69
2021/10/15 08:54:16;;;;;;;6.10;4.37;;;12.50;99.90;;;;;;5060239;28;20546;-68
2021/10/15 08:56:43;;;;;;;8.60;6.17;;;12.50;99.90;;;;;;5058490;28;20609;-69
2021/10/15 08:59:15;;;;;;;8.43;5.10;;;12.50;99.90;;;;;;5063618;28;20520;-69
2021/10/15 09:01:44;;;;;;;10.27;5.67;;;12.40;99.90;;;;;;5060204;28;20450;-69
2021/10/15 09:04:16;;;;;;;10.00;5.83;;;12.40;99.90;;;;;;5062745;28;21113;-68
2021/10/15 09:06:43;;;;;;;16.43;5.63;;;12.50;99.90;;;;;;5061280;28;20474;-69
2021/10/15 09:09:11;;;;;;;11.50;6.13;;;12.50;99.90;;;;;;5058340;28;20515;-69
2021/10/15 09:11:39;;;;;;;14.50;7.30;;;12.50;99.90;;;;;;5064710;28;20489;-68
2021/10/15 09:14:18;;;;;;;11.77;5.83;;;12.40;99.90;;;;;;5061130;28;20509;-68
2021/10/15 09:17:10;;;;;;;11.20;6.47;;;12.40;99.90;;;;;;5064603;28;21104;-69
2021/10/15 09:19:40;;;;;;;9.50;6.23;;;12.50;99.90;;;;;;5057503;28;21014;-69
2021/10/15 09:22:18;;;;;;;16.37;7.30;;;12.70;99.90;;;;;;5055936;28;20458;-69
2021/10/15 09:24:48;;;;;;;11.07;7.03;;;12.80;99.90;;;;;;5064170;28;20507;-69
2021/10/15 09:27:18;;;;;;;8.47;6.47;;;12.90;99.90;;;;;;5060998;28;20494;-68
2021/10/15 09:29:48;;;;;;;10.83;6.80;;;12.90;99.90;;;;;;5058361;28;20505;-69
2021/10/15 09:32:16;;;;;;;7.77;6.40;;;12.90;99.90;;;;;;5055540;28;20826;-67
2021/10/15 09:34:44;;;;;;;10.50;6.70;;;13.10;99.90;;;;;;5054740;28;20538;-68
2021/10/15 09:37:16;;;;;;;12.67;7.50;;;13.10;99.90;;;;;;5055789;28;20487;-67
2021/10/15 09:39:43;;;;;;;14.53;7.80;;;13.10;99.90;;;;;;5063965;28;20863;-68
2021/10/15 09:42:18;;;;;;;8.77;6.27;;;13.30;99.90;;;;;;5057768;28;20837;-68
2021/10/15 09:44:47;;;;;;;6.87;6.07;;;13.40;99.90;;;;;;5063938;28;20471;-68
2021/10/15 09:47:17;;;;;;;11.03;6.83;;;13.50;99.90;;;;;;5055002;28;20467;-68
2021/10/15 09:49:51;;;;;;;8.63;6.50;;;13.40;99.90;;;;;;5055899;28;20872;-68
2021/10/15 09:52:37;;;;;;;11.80;6.50;;;13.40;99.90;;;;;;5064033;28;20457;-68
2021/10/15 09:55:10;;;;;;;7.90;6.03;;;13.50;99.90;;;;;;5063301;28;20573;-68
2021/10/15 09:57:38;;;;;;;6.87;5.53;;;13.70;99.90;;;;;;5057328;28;20556;-69
2021/10/15 10:00:10;;;;;;;8.90;6.27;;;13.80;99.90;;;;;;5059138;28;20521;-69
2021/10/15 10:02:37;;;;;;;9.57;4.57;;;13.90;99.90;;;;;;5061524;28;20477;-68
2021/10/15 10:05:11;;;;;;;9.37;6.20;;;14.10;99.90;;;;;;5062589;28;20978;-68
2021/10/15 10:07:38;;;;;;;4.77;3.83;;;14.20;99.90;;;;;;5056983;28;20992;-68
2021/10/15 10:10:07;;;;;;;6.03;4.60;;;14.40;99.90;;;;;;5059349;28;20516;-68
2021/10/15 10:12:37;;;;;;;3.93;3.17;;;14.30;99.90;;;;;;5059234;28;20529;-68
2021/10/15 10:15:07;;;;;;;11.67;4.80;;;14.10;99.90;;;;;;5064170;28;20554;-68
2021/10/15 10:17:40;;;;;;;4.07;2.77;;;13.90;99.90;;;;;;5059265;28;20567;-68
2021/10/15 10:20:12;;;;;;;2.07;1.87;;;13.70;99.90;;;;;;5058145;28;20988;-69
2021/10/15 10:22:50;;;;;;;2.20;2.00;;;13.60;99.90;;;;;;5056894;28;20948;-68
2021/10/15 10:25:24;;;;;;;3.77;1.30;;;13.50;99.90;;;;;;5060572;28;20470;-69
2021/10/15 10:27:52;;;;;;;3.03;2.33;;;13.50;99.90;;;;;;5056222;28;20486;-70
2021/10/15 10:30:36;;;;;;;1.20;1.00;;;13.40;99.90;;;;;;5059001;28;20469;-69
2021/10/15 10:33:04;;;;;;;1.70;1.10;;;13.50;99.90;;;;;;5057533;28;20531;-69
2021/10/15 10:35:32;;;;;;;2.07;1.63;;;13.30;99.90;;;;;;5058756;28;20554;-69
2021/10/15 10:38:26;;;;;;;1.97;1.77;;;13.30;99.90;;;;;;5063154;28;20447;-68
2021/10/15 10:41:13;;;;;;;5.43;1.23;;;13.50;99.90;;;;;;5056348;28;20933;-68
2021/10/15 10:44:21;;;;;;;2.07;1.40;;;13.70;99.90;;;;;;5068373;28;20599;-69
2021/10/15 10:47:15;;;;;;;2.27;1.50;;;13.80;99.90;;;;;;5059054;28;21031;-70
2021/10/15 10:49:44;;;;;;;1.87;1.00;;;13.80;99.90;;;;;;5056579;28;20528;-68
2021/10/15 10:52:20;;;;;;;1.00;0.80;;;13.70;99.90;;;;;;5054812;28;20451;-68
2021/10/15 10:54:49;;;;;;;1.10;0.90;;;13.90;99.90;;;;;;5063666;28;21025;-69
2021/10/15 10:57:22;;;;;;;1.67;1.00;;;14.00;99.90;;;;;;5058099;28;20512;-68
2021/10/15 10:59:51;;;;;;;3.03;1.17;;;14.30;99.90;;;;;;5058039;28;20935;-68
2021/10/15 11:02:21;;;;;;;1.60;1.00;;;14.50;99.90;;;;;;5056910;28;20533;-67
2021/10/15 11:04:58;;;;;;;2.73;1.33;;;14.90;99.90;;;;;;5056590;28;20465;-68
2021/10/15 11:07:29;;;;;;;2.40;1.30;;;14.90;99.90;;;;;;5058744;28;20982;-68
2021/10/15 11:09:59;;;;;;;1.47;1.00;;;14.70;99.90;;;;;;5064595;28;20606;-68
2021/10/15 11:12:59;;;;;;;2.13;1.30;;;15.40;99.90;;;;;;5054471;28;20876;-67
2021/10/15 11:15:30;;;;;;;1.17;1.07;;;16.60;99.90;;;;;;5060985;28;20494;-67
2021/10/15 11:17:59;;;;;;;1.70;0.87;;;17.60;99.90;;;;;;5053626;28;20439;-68
2021/10/15 11:20:28;;;;;;;1.10;0.90;;;17.30;99.90;;;;;;5052366;28;20447;-67
2021/10/15 11:22:58;;;;;;;1.10;0.90;;;17.60;99.90;;;;;;5066888;28;20902;-68
2021/10/15 11:25:28;;;;;;;3.30;1.67;;;17.20;99.90;;;;;;5061523;28;20463;-68
2021/10/15 11:27:58;;;;;;;1.30;0.90;;;17.10;99.90;;;;;;5066616;28;20446;-67
2021/10/15 11:30:28;;;;;;;1.70;1.10;;;17.10;99.90;;;;;;5061764;28;20496;-68
2021/10/15 11:32:58;;;;;;;2.33;1.50;;;16.60;99.90;;;;;;5057698;28;20486;-68
2021/10/15 11:35:27;;;;;;;1.67;1.17;;;16.60;99.90;;;;;;5066157;28;20549;-68
2021/10/15 11:38:00;;;;;;;6.13;0.93;;;16.50;99.90;;;;;;5056803;28;20439;-68
2021/10/15 11:40:33;;;;;;;4.93;1.63;;;16.50;99.90;;;;;;5060418;28;21005;-68
2021/10/15 11:43:09;;;;;;;3.97;1.13;;;17.00;99.90;;;;;;5060060;28;20534;-68
2021/10/15 11:45:38;;;;;;;4.87;1.33;;;17.30;99.90;;;;;;5062338;28;20625;-69
2021/10/15 11:48:09;;;;;;;2.50;1.10;;;18.40;99.90;;;;;;5057937;28;20468;-68
2021/10/15 11:50:44;;;;;;;5.90;1.40;;;20.10;99.90;;;;;;5061679;28;20537;-68
2021/10/15 11:53:13;;;;;;;1.40;1.10;;;21.00;99.90;;;;;;5063584;28;20451;-67
2021/10/15 11:55:42;;;;;;;4.83;1.70;;;20.90;99.90;;;;;;5062904;28;21157;-67
2021/10/15 11:58:19;;;;;;;3.33;2.00;;;20.90;99.90;;;;;;5065254;28;20505;-67
2021/10/15 12:01:10;;;;;;;3.10;1.03;;;21.10;99.90;;;;;;5070182;28;20446;-70
2021/10/15 12:03:40;;;;;;;2.70;1.07;;;21.60;99.90;;;;;;5057593;28;20450;-68
2021/10/15 12:06:25;;;;;;;5.20;1.30;;;21.30;99.90;;;;;;5061769;28;20480;-68
2021/10/15 12:08:57;;;;;;;1.87;1.07;;;20.90;99.90;;;;;;5058590;28;20493;-68
2021/10/15 12:11:28;;;;;;;3.57;1.20;;;21.80;99.90;;;;;;5061096;28;20547;-69
2021/10/15 12:13:56;;;;;;;1.73;1.00;;;23.00;99.90;;;;;;5063897;28;20489;-68
2021/10/15 12:16:29;;;;;;;2.70;1.30;;;23.20;99.90;;;;;;5062663;28;20521;-68
2021/10/15 12:19:03;;;;;;;6.30;1.23;;;22.30;99.90;;;;;;5055498;28;20482;-69
2021/10/15 12:21:32;;;;;;;3.50;1.13;;;21.90;99.90;;;;;;5061625;28;20498;-69
2021/10/15 12:23:59;;;;;;;5.10;1.23;;;22.10;99.90;;;;;;5058155;28;20824;-69
2021/10/15 12:26:26;;;;;;;3.93;1.70;;;22.60;99.90;;;;;;5058190;28;20532;-69
2021/10/15 12:28:54;;;;;;;3.97;1.27;;;23.10;99.90;;;;;;5062472;28;20805;-69
2021/10/15 12:31:27;;;;;;;1.20;0.90;;;23.80;99.90;;;;;;5070180;28;20442;-70
2021/10/15 12:34:10;;;;;;;1.27;1.07;;;24.10;99.90;;;;;;5062542;28;20532;-69
2021/10/15 12:36:39;;;;;;;2.13;1.33;;;23.00;99.90;;;;;;5064304;28;20898;-69
2021/10/15 12:39:16;;;;;;;4.40;1.00;;;22.20;99.90;;;;;;5055051;28;20452;-69
2021/10/15 12:41:45;;;;;;;2.23;1.63;;;21.80;99.90;;;;;;5059748;28;21185;-69
2021/10/15 12:44:28;;;;;;;1.60;1.20;;;21.80;99.90;;;;;;5053441;28;21030;-68
2021/10/15 12:47:01;;;;;;;2.47;1.33;;;23.30;99.90;;;;;;5062203;28;20567;-67
2021/10/15 12:49:31;;;;;;;2.43;1.77;;;24.40;99.90;;;;;;5058522;28;20483;-68
2021/10/15 12:51:58;;;;;;;4.07;1.20;;;24.00;99.90;;;;;;5062379;28;20466;-67
2021/10/15 12:54:41;;;;;;;2.23;1.00;;;23.70;99.90;;;;;;5059180;28;20498;-67
2021/10/15 12:57:16;;;;;;;3.97;1.23;;;24.10;99.40;;;;;;5061579;28;20524;-67
2021/10/15 13:00:02;;;;;;;1.10;0.80;;;23.60;97.60;;;;;;5064554;28;20434;-68
2021/10/15 13:02:30;;;;;;;1.73;1.13;;;23.20;99.10;;;;;;5058400;28;20439;-67
2021/10/15 13:05:03;;;;;;;1.30;1.00;;;23.20;98.70;;;;;;5063483;28;20555;-68
2021/10/15 13:07:30;;;;;;;1.30;1.10;;;23.30;99.90;;;;;;5054597;28;20554;-68